Sti Providence — V7IT7 — position and weather

sailwx.info

Track history (hours):
 
Tides and Currents Weather Stations Pressure Air Temp Water Temp Dewpoint Dewpoint Depression Visibility Wind Speed Wind Dir Waves Ship Positions

Sti Providence

Last reported at 2018-Aug-05 07:48 UTC. Time now 2018-Aug-14 23:41 UTC.
Position N 01°16' E 103°23'.
Warning: this ship's position is 9 days out of date.

Length 220 m; draft 8 m.

Type: Tanker. MMSI: 538005993.

Date/timePositionNaut miles runAvg speedWind from/ knotsBaromVisibWave heightAir tempDewpointWater temp
2018-Aug-05 07:48N 01°16' E 103°23'411.3
2018-Aug-05 07:29N 01°14' E 103°26'611.8
2018-Aug-05 07:00N 01°12' E 103°32'612.6
2018-Aug-05 06:30N 01°11' E 103°38'612.3
2018-Aug-05 05:59N 01°08' E 103°43'611.8
2018-Aug-05 05:30N 01°11' E 103°49'612.0
2018-Aug-05 05:01N 01°13' E 103°54'611.9
2018-Aug-05 04:30N 01°15' E 103°60'611.7
2018-Aug-05 03:59N 01°16' E 104°06'612.3
2018-Aug-05 03:30N 01°17' E 104°11'611.6
2018-Aug-05 02:58N 01°18' E 104°18'511.4
2018-Aug-05 02:30N 01°21' E 104°22'811.7
2018-Aug-05 01:48N 01°26' E 104°28'  
2018-Jul-27 09:46N 23°31' E 119°54'414.8
2018-Jul-27 09:30N 23°28' E 119°54'  
Track history (hours):
 
Tides and Currents Weather Stations Pressure Air Temp Water Temp Dewpoint Dewpoint Depression Visibility Wind Speed Wind Dir Waves Ship Positions

Sti Providence

Last reported at 2018-Aug-05 07:48 UTC. Time now 2018-Aug-14 23:41 UTC.
Position N 01°16' E 103°23'.
Warning: this ship's position is 9 days out of date.

Length 220 m; draft 8 m.

Type: Tanker. MMSI: 538005993.

Date/timePositionNaut miles runAvg speedWind from/ knotsBaromVisibWave heightAir tempDewpointWater temp
2018-Aug-05 07:48N 01°16' E 103°23'411.3
2018-Aug-05 07:29N 01°14' E 103°26'611.8
2018-Aug-05 07:00N 01°12' E 103°32'612.6
2018-Aug-05 06:30N 01°11' E 103°38'612.3
2018-Aug-05 05:59N 01°08' E 103°43'611.8
2018-Aug-05 05:30N 01°11' E 103°49'612.0
2018-Aug-05 05:01N 01°13' E 103°54'611.9
2018-Aug-05 04:30N 01°15' E 103°60'611.7
2018-Aug-05 03:59N 01°16' E 104°06'612.3
2018-Aug-05 03:30N 01°17' E 104°11'611.6
2018-Aug-05 02:58N 01°18' E 104°18'511.4
2018-Aug-05 02:30N 01°21' E 104°22'811.7
2018-Aug-05 01:48N 01°26' E 104°28'  
2018-Jul-27 09:46N 23°31' E 119°54'414.8
2018-Jul-27 09:30N 23°28' E 119°54'  

Dump ship's entire track history